Time;durP1;ratioP1;P1;durP2;ratioP2;P2;SDS_P1;SDS_P2;PMS_P1;PMS_P2;Temp;Humidity;BMP_temperature;BMP_pressure;BME280_temperature;BME280_humidity;BME280_pressure;Samples;Min_cycle;Max_cycle;Signal;HPM_P1;HPM_P2
2023/02/16 00:00:46;;;;;;;30.23;15.27;;;3.60;99.90;;;-148.53;100.00;63986.66;5010360;28;20046;-72
2023/02/16 00:03:19;;;;;;;29.08;15.07;;;3.50;99.90;;;-148.53;100.00;63986.66;5004654;28;20370;-72
2023/02/16 00:05:46;;;;;;;28.27;15.13;;;3.50;99.90;;;-148.53;100.00;63986.66;4998004;28;20129;-73
2023/02/16 00:08:11;;;;;;;32.92;16.10;;;3.40;99.90;;;-148.53;100.00;63986.66;5008511;28;20088;-72
2023/02/16 00:10:38;;;;;;;29.75;14.85;;;3.40;99.90;;;-148.53;100.00;63986.66;5006690;28;20061;-72
2023/02/16 00:13:43;;;;;;;29.77;17.30;;;3.40;99.90;;;-148.53;100.00;63986.66;5011810;28;20571;-72
2023/02/16 00:16:19;;;;;;;32.25;16.00;;;3.40;99.90;;;-148.53;100.00;63986.66;5002006;28;20038;-72
2023/02/16 00:18:46;;;;;;;35.25;16.48;;;3.30;99.90;;;-148.53;100.00;63986.66;5007146;28;20038;-72
2023/02/16 00:21:13;;;;;;;32.08;16.33;;;3.30;99.90;;;-148.53;100.00;63986.66;5018104;28;20112;-73
2023/02/16 00:23:38;;;;;;;32.53;16.38;;;3.20;99.90;;;-148.53;100.00;63986.66;5002737;28;20100;-72
2023/02/16 00:26:12;;;;;;;31.30;15.27;;;3.20;99.90;;;-148.53;100.00;63986.66;5002619;28;20038;-72
2023/02/16 00:28:38;;;;;;;32.85;16.48;;;3.20;99.90;;;-148.53;100.00;63986.66;5005163;28;20053;-72
2023/02/16 00:31:04;;;;;;;32.63;17.02;;;3.10;99.90;;;-148.53;100.00;63986.66;4990619;28;20041;-72
2023/02/16 00:33:30;;;;;;;33.75;17.55;;;3.00;99.90;;;-148.53;100.00;63986.66;4997579;28;20069;-72
2023/02/16 00:35:55;;;;;;;33.88;17.20;;;2.90;99.90;;;-148.53;100.00;63986.66;5005093;28;20038;-72
2023/02/16 00:38:21;;;;;;;35.35;17.60;;;2.90;99.90;;;-148.53;100.00;63986.66;5005388;28;20069;-72
2023/02/16 00:40:47;;;;;;;38.25;18.63;;;2.80;99.90;;;-148.53;100.00;63986.66;5004237;28;20141;-72
2023/02/16 00:43:28;;;;;;;31.60;16.58;;;2.80;99.90;;;-148.53;100.00;63986.66;4994832;28;20489;-73
2023/02/16 00:45:56;;;;;;;35.60;17.45;;;2.70;99.90;;;-148.53;100.00;63986.66;5005685;28;20054;-73
2023/02/16 00:48:23;;;;;;;33.42;16.73;;;2.70;99.90;;;-148.53;100.00;63986.66;4999749;28;20090;-71
2023/02/16 00:50:51;;;;;;;36.17;17.90;;;2.70;99.90;;;-148.53;100.00;63986.66;5003963;28;20405;-72
2023/02/16 00:53:17;;;;;;;36.97;17.92;;;2.80;99.90;;;-148.53;100.00;63986.66;5013987;28;20054;-72
2023/02/16 00:55:43;;;;;;;33.00;16.35;;;2.80;99.90;;;-148.53;100.00;63986.66;5010785;28;20048;-72
2023/02/16 00:58:22;;;;;;;35.08;18.95;;;2.80;99.90;;;-148.53;100.00;63986.66;5005857;28;20034;-72
2023/02/16 01:00:54;;;;;;;36.78;17.77;;;2.80;99.90;;;-148.53;100.00;63986.66;5002282;28;20438;-72
2023/02/16 01:03:26;;;;;;;37.05;18.73;;;2.90;99.90;;;-148.53;100.00;63986.66;4993684;28;20112;-72
2023/02/16 01:11:06;;;;;;;38.55;17.58;;;2.90;99.90;;;-148.53;100.00;63986.66;5000573;28;20117;-72
2023/02/16 01:11:24;;;;;;;36.95;18.35;;;2.90;99.90;;;-148.53;100.00;63986.66;5006609;28;20057;-72
2023/02/16 01:13:52;;;;;;;37.63;19.10;;;3.00;99.90;;;-148.53;100.00;63986.66;5020379;28;20038;-72
2023/02/16 01:16:25;;;;;;;37.58;17.70;;;3.00;99.90;;;-148.53;100.00;63986.66;5001728;28;20164;-72
2023/02/16 01:18:52;;;;;;;35.97;18.05;;;3.00;99.90;;;-148.53;100.00;63986.66;5000341;28;21303;-72
2023/02/16 01:21:20;;;;;;;37.53;18.40;;;3.00;99.90;;;-148.53;100.00;63986.66;4992862;28;20041;-72
2023/02/16 01:23:47;;;;;;;34.15;17.48;;;3.00;99.90;;;-148.53;100.00;63986.66;5002777;28;20077;-72
2023/02/16 01:26:17;;;;;;;34.90;18.05;;;3.00;99.90;;;-148.53;100.00;63986.66;4993554;28;20068;-72
2023/02/16 01:28:46;;;;;;;41.13;18.88;;;3.00;99.90;;;-148.53;100.00;63986.66;5009865;28;20042;-72
2023/02/16 01:31:15;;;;;;;37.72;18.05;;;3.00;99.90;;;-148.53;100.00;63986.66;5005493;28;20033;-72
2023/02/16 01:33:41;;;;;;;35.17;18.63;;;3.00;99.90;;;-148.53;100.00;63986.66;5001689;28;20156;-72
2023/02/16 01:36:47;;;;;;;39.03;19.10;;;2.90;99.90;;;-148.53;100.00;63986.66;5009654;28;20477;-72
2023/02/16 01:39:17;;;;;;;34.85;18.88;;;2.90;99.90;;;-148.53;100.00;63986.66;4988778;28;20031;-72
2023/02/16 01:42:17;;;;;;;38.58;19.45;;;2.90;99.90;;;-148.53;100.00;63986.66;4972181;28;20126;-72
2023/02/16 01:44:50;;;;;;;39.22;18.25;;;2.90;99.90;;;-148.53;100.00;63986.66;5002382;28;20055;-72
2023/02/16 01:47:35;;;;;;;38.78;20.25;;;2.80;99.90;;;-148.53;100.00;63986.66;5015572;28;20052;-73
2023/02/16 01:50:29;;;;;;;39.97;19.80;;;2.80;99.90;;;-148.53;100.00;63986.66;4999512;28;20045;-72
2023/02/16 01:53:13;;;;;;;36.50;18.83;;;2.80;99.90;;;-148.53;100.00;63986.66;4996507;28;20035;-72
2023/02/16 01:55:46;;;;;;;38.42;19.35;;;2.80;99.90;;;-148.53;100.00;63986.66;5006895;28;20450;-72
2023/02/16 01:58:44;;;;;;;38.90;19.65;;;2.80;99.90;;;-148.53;100.00;63986.66;4997367;28;20121;-72
2023/02/16 02:01:35;;;;;;;38.67;20.02;;;2.70;99.90;;;-148.53;100.00;63986.66;5007713;28;20042;-72
2023/02/16 02:06:56;;;;;;;43.70;21.27;;;2.60;99.90;;;-148.53;100.00;63986.66;4996907;28;20041;-72
2023/02/16 02:09:41;;;;;;;39.08;19.98;;;2.60;99.90;;;-148.53;100.00;63986.66;4992545;28;20080;-72
2023/02/16 02:12:30;;;;;;;42.40;20.80;;;2.60;99.90;;;-148.53;100.00;63986.66;4995846;28;20648;-72
2023/02/16 02:14:56;;;;;;;39.17;19.05;;;2.60;99.90;;;-148.53;100.00;63986.66;4990677;28;20108;-72
2023/02/16 02:17:23;;;;;;;42.25;20.40;;;2.60;99.90;;;-148.53;100.00;63986.66;4997905;28;20038;-72
2023/02/16 02:20:15;;;;;;;42.42;20.20;;;2.50;99.90;;;-148.53;100.00;63986.66;4997830;28;20058;-72
2023/02/16 02:23:32;;;;;;;43.60;21.13;;;2.50;99.90;;;-148.53;100.00;63986.66;5008939;28;20050;-72
2023/02/16 02:26:37;;;;;;;43.88;20.77;;;2.40;99.90;;;-148.53;100.00;63986.66;4997931;28;20519;-72
2023/02/16 02:29:39;;;;;;;43.75;20.95;;;2.50;99.90;;;-148.53;100.00;63986.66;5015708;28;20034;-72
2023/02/16 02:32:23;;;;;;;45.28;21.38;;;2.50;99.90;;;-148.53;100.00;63986.66;5003285;28;20116;-72
2023/02/16 02:35:21;;;;;;;50.05;22.10;;;2.50;99.90;;;-148.53;100.00;63986.66;4996021;28;20572;-72
2023/02/16 02:38:08;;;;;;;46.60;21.63;;;2.50;99.90;;;-148.53;100.00;63986.66;5000408;28;20034;-72
2023/02/16 02:40:54;;;;;;;42.85;20.90;;;2.60;99.90;;;-148.53;100.00;63986.66;4982469;28;20077;-72
2023/02/16 02:43:37;;;;;;;47.03;22.35;;;2.60;99.90;;;-148.53;100.00;63986.66;4999658;28;20129;-72
2023/02/16 02:46:26;;;;;;;46.30;22.33;;;2.60;99.90;;;-148.53;100.00;63986.66;4969162;28;1011180;-72
2023/02/16 02:48:52;;;;;;;46.70;22.75;;;2.70;99.90;;;-148.53;100.00;63986.66;4997655;28;20042;-72
2023/02/16 02:51:28;;;;;;;45.22;22.40;;;2.70;99.90;;;-148.53;100.00;63986.66;4993411;28;20039;-72
2023/02/16 03:00:40;;;;;;;47.45;22.25;;;2.70;99.90;;;-148.53;100.00;63986.66;5000442;28;20527;-73
2023/02/16 03:03:31;;;;;;;51.13;23.05;;;2.70;99.90;;;-148.53;100.00;63986.66;4991404;28;20100;-74
2023/02/16 03:06:26;;;;;;;43.53;21.15;;;2.80;99.90;;;-148.53;100.00;63986.66;4998107;28;20042;-72
2023/02/16 03:09:10;;;;;;;42.88;21.02;;;2.80;99.90;;;-148.53;100.00;63986.66;5011429;28;20085;-72
2023/02/16 03:14:35;;;;;;;45.05;22.23;;;2.80;99.90;;;-148.53;100.00;63986.66;4991459;28;20097;-73
2023/02/16 03:31:14;;;;;;;44.78;22.08;;;2.70;99.90;;;-148.53;100.00;63986.66;5007750;28;20060;-72
2023/02/16 03:33:41;;;;;;;52.00;24.67;;;2.70;99.90;;;-148.53;100.00;63986.66;5011000;28;20537;-73
2023/02/16 03:36:08;;;;;;;49.58;23.67;;;2.70;99.90;;;-148.53;100.00;63986.66;4995502;28;20482;-72
2023/02/16 03:38:34;;;;;;;46.75;23.45;;;2.70;99.90;;;-148.53;100.00;63986.66;5000864;28;20030;-73
2023/02/16 03:41:00;;;;;;;52.05;25.10;;;2.70;99.90;;;-148.53;100.00;63986.66;5007624;28;20038;-74
2023/02/16 03:43:27;;;;;;;50.85;24.63;;;2.70;99.90;;;-148.53;100.00;63986.66;5013199;28;20030;-73
2023/02/16 03:45:54;;;;;;;46.80;22.95;;;2.70;99.90;;;-148.53;100.00;63986.66;5006595;28;20116;-74
2023/02/16 03:48:20;;;;;;;49.17;23.38;;;2.70;99.90;;;-148.53;100.00;63986.66;5002199;28;20045;-74
2023/02/16 03:50:46;;;;;;;52.33;24.23;;;2.70;99.90;;;-148.53;100.00;63986.66;4998610;28;20093;-74
2023/02/16 03:53:11;;;;;;;51.60;24.67;;;2.60;99.90;;;-148.53;100.00;63986.66;4992705;28;20085;-74
2023/02/16 03:55:45;;;;;;;54.95;24.77;;;2.60;99.90;;;-148.53;100.00;63986.66;5006619;28;20764;-74
2023/02/16 03:58:15;;;;;;;46.30;23.38;;;2.60;99.90;;;-148.53;100.00;63986.66;4999611;28;20058;-73
2023/02/16 04:00:41;;;;;;;49.97;23.80;;;2.60;99.90;;;-148.53;100.00;63986.66;5008831;28;20042;-73
2023/02/16 04:03:08;;;;;;;53.00;25.27;;;2.70;99.90;;;-148.53;100.00;63986.66;5009411;28;20042;-73
2023/02/16 04:05:34;;;;;;;50.33;25.30;;;2.60;99.90;;;-148.53;100.00;63986.66;4994125;28;20488;-74
2023/02/16 04:08:00;;;;;;;52.05;23.83;;;2.70;99.90;;;-148.53;100.00;63986.66;5003370;28;20482;-73
2023/02/16 04:10:26;;;;;;;51.58;25.58;;;2.70;99.90;;;-148.53;100.00;63986.66;5005069;28;20026;-73
2023/02/16 04:12:52;;;;;;;52.78;23.23;;;2.70;99.90;;;-148.53;100.00;63986.66;4992769;28;20474;-73
2023/02/16 04:15:22;;;;;;;52.35;23.58;;;2.70;99.90;;;-148.53;100.00;63986.66;4997522;28;20046;-73
2023/02/16 04:17:48;;;;;;;51.20;23.27;;;2.70;99.90;;;-148.53;100.00;63986.66;5005092;28;20034;-73
2023/02/16 04:20:18;;;;;;;55.03;24.27;;;2.70;99.90;;;-148.53;100.00;63986.66;5004403;28;20034;-73
2023/02/16 04:22:45;;;;;;;49.95;24.67;;;2.70;99.90;;;-148.53;100.00;63986.66;5003419;28;20045;-73
2023/02/16 04:25:12;;;;;;;52.00;25.08;;;2.70;99.90;;;-148.53;100.00;63986.66;5009466;28;20133;-73
2023/02/16 04:27:40;;;;;;;51.60;25.23;;;2.70;99.90;;;-148.53;100.00;63986.66;5007023;28;20643;-73
2023/02/16 04:30:10;;;;;;;52.17;24.90;;;2.70;99.90;;;-148.53;100.00;63986.66;5011220;28;20037;-73
2023/02/16 04:32:36;;;;;;;50.72;26.02;;;2.70;99.90;;;-148.53;100.00;63986.66;5003155;28;20442;-73
2023/02/16 04:35:02;;;;;;;51.85;25.80;;;2.60;99.90;;;-148.53;100.00;63986.66;5009917;28;20045;-73
2023/02/16 04:37:28;;;;;;;53.28;25.20;;;2.60;99.90;;;-148.53;100.00;63986.66;5006133;28;20034;-73
2023/02/16 04:39:53;;;;;;;55.55;24.98;;;2.50;99.90;;;-148.53;100.00;63986.66;5006758;28;20048;-73
2023/02/16 04:42:19;;;;;;;54.83;27.17;;;2.50;99.90;;;-148.53;100.00;63986.66;5006531;28;20582;-73
2023/02/16 04:44:45;;;;;;;54.15;23.42;;;2.50;99.90;;;-148.53;100.00;63986.66;5001284;28;20485;-73
2023/02/16 04:47:11;;;;;;;56.35;25.75;;;2.40;99.90;;;-148.53;100.00;63986.66;4997794;28;20069;-73
2023/02/16 04:49:36;;;;;;;50.92;24.13;;;2.40;99.90;;;-148.53;100.00;63986.66;5004297;28;20069;-72
2023/02/16 04:52:03;;;;;;;53.75;25.15;;;2.40;99.90;;;-148.53;100.00;63986.66;5004948;28;20034;-73
2023/02/16 04:54:31;;;;;;;55.42;26.10;;;2.40;99.90;;;-148.53;100.00;63986.66;4999001;28;20073;-73
2023/02/16 04:56:58;;;;;;;54.55;26.55;;;2.40;99.90;;;-148.53;100.00;63986.66;5002262;28;20034;-73
2023/02/16 04:59:24;;;;;;;55.72;25.95;;;2.30;99.90;;;-148.53;100.00;63986.66;4996097;28;20049;-72
2023/02/16 05:01:49;;;;;;;55.78;26.85;;;2.30;99.90;;;-148.53;100.00;63986.66;4992629;28;20047;-72
2023/02/16 05:04:15;;;;;;;53.30;25.52;;;2.30;99.90;;;-148.53;100.00;63986.66;5000883;28;20061;-72
2023/02/16 05:06:42;;;;;;;54.97;25.88;;;2.20;99.90;;;-148.53;100.00;63986.66;4992686;28;20065;-72
2023/02/16 05:09:08;;;;;;;57.40;25.27;;;2.20;99.90;;;-148.53;100.00;63986.66;5003504;28;20061;-72
2023/02/16 05:14:41;;;;;;;57.13;25.80;;;2.10;99.90;;;-148.53;100.00;63986.66;5004885;28;20398;-71
2023/02/16 05:17:23;;;;;;;58.78;25.27;;;2.10;99.90;;;-148.53;100.00;63986.66;5005573;28;20038;-73
2023/02/16 05:19:56;;;;;;;55.28;23.58;;;2.20;99.90;;;-148.53;100.00;63986.66;5004602;28;20034;-73
2023/02/16 05:22:22;;;;;;;51.30;26.27;;;2.30;99.90;;;-148.53;100.00;63986.66;5004716;28;20060;-71
2023/02/16 05:24:48;;;;;;;57.80;27.98;;;2.30;99.90;;;-148.53;100.00;63986.66;5003061;28;20053;-72
2023/02/16 05:27:20;;;;;;;56.08;25.60;;;2.30;99.90;;;-148.53;100.00;63986.66;5002277;28;20029;-72
2023/02/16 05:29:47;;;;;;;53.97;26.05;;;2.30;99.90;;;-148.53;100.00;63986.66;5006346;28;20075;-72
2023/02/16 05:32:13;;;;;;;58.00;27.30;;;2.40;99.90;;;-148.53;100.00;63986.66;4992595;28;20050;-72
2023/02/16 05:34:39;;;;;;;58.35;26.83;;;2.40;99.90;;;-148.53;100.00;63986.66;5004997;28;20124;-73
2023/02/16 05:37:05;;;;;;;59.88;25.83;;;2.40;99.90;;;-148.53;100.00;63986.66;5004834;28;20065;-73
2023/02/16 05:39:31;;;;;;;58.45;26.77;;;2.40;99.90;;;-148.53;100.00;63986.66;5008480;28;20045;-73
2023/02/16 05:41:57;;;;;;;59.38;26.90;;;2.40;99.90;;;-148.53;100.00;63986.66;5005365;28;20448;-73
2023/02/16 05:44:23;;;;;;;53.58;26.35;;;2.50;99.90;;;-148.53;100.00;63986.66;5004401;28;20033;-73
2023/02/16 05:46:49;;;;;;;56.90;26.23;;;2.40;99.90;;;-148.53;100.00;63986.66;5002472;28;20057;-73
2023/02/16 05:49:16;;;;;;;54.40;25.70;;;2.50;99.90;;;-148.53;100.00;63986.66;5004926;28;20046;-73
2023/02/16 05:51:42;;;;;;;56.92;26.13;;;2.50;99.90;;;-148.53;100.00;63986.66;5005901;28;20042;-72
2023/02/16 05:54:16;;;;;;;52.55;25.65;;;2.50;99.90;;;-148.53;100.00;63986.66;5008965;28;20095;-72
2023/02/16 05:56:44;;;;;;;51.92;22.88;;;2.50;99.90;;;-148.53;100.00;63986.66;5004531;28;20046;-72
2023/02/16 05:59:10;;;;;;;54.60;25.92;;;2.60;99.90;;;-148.53;100.00;63986.66;4996527;28;20067;-73
2023/02/16 06:01:39;;;;;;;54.80;24.42;;;2.60;99.90;;;-148.53;100.00;63986.66;5003150;28;20053;-72
2023/02/16 06:04:14;;;;;;;52.15;25.23;;;2.50;99.90;;;-148.53;100.00;63986.66;5004788;28;20040;-73
2023/02/16 06:06:40;;;;;;;57.53;25.52;;;2.50;99.90;;;-148.53;100.00;63986.66;5013514;28;20050;-72
2023/02/16 06:09:07;;;;;;;55.13;25.10;;;2.50;99.90;;;-148.53;100.00;63986.66;5005397;28;20074;-73
2023/02/16 06:11:36;;;;;;;61.80;25.70;;;2.40;99.90;;;-148.53;100.00;63986.66;5006370;28;20038;-72
2023/02/16 06:14:11;;;;;;;59.95;27.42;;;2.40;99.90;;;-148.53;100.00;63986.66;5005967;28;20046;-73
2023/02/16 06:16:41;;;;;;;51.67;26.25;;;2.50;99.90;;;-148.53;100.00;63986.66;5000094;28;20042;-73
2023/02/16 06:19:07;;;;;;;50.13;25.17;;;2.40;99.90;;;-148.53;100.00;63986.66;4986488;28;20049;-74
2023/02/16 06:21:34;;;;;;;48.47;24.67;;;2.40;99.90;;;-148.53;100.00;63986.66;4999917;28;20026;-73
2023/02/16 06:24:00;;;;;;;53.08;25.33;;;2.40;99.90;;;-148.53;100.00;63986.66;4999414;28;20109;-73
2023/02/16 06:26:26;;;;;;;49.83;24.83;;;2.40;99.90;;;-148.53;100.00;63986.66;5005061;28;20052;-74
2023/02/16 06:28:53;;;;;;;55.75;25.90;;;2.40;99.90;;;-148.53;100.00;63986.66;5004639;28;20096;-73
2023/02/16 06:31:19;;;;;;;51.42;24.98;;;2.50;99.90;;;-148.53;100.00;63986.66;4995281;28;20050;-72
2023/02/16 06:33:46;;;;;;;51.47;24.77;;;2.50;99.90;;;-148.53;100.00;63986.66;4998028;28;20112;-72
2023/02/16 06:36:13;;;;;;;54.28;25.10;;;2.50;99.90;;;-148.53;100.00;63986.66;5004342;28;20124;-73
2023/02/16 06:38:38;;;;;;;51.65;24.75;;;2.50;99.90;;;-148.53;100.00;63986.66;5000890;28;20042;-72
2023/02/16 06:41:05;;;;;;;46.95;23.27;;;2.50;99.90;;;-148.53;100.00;63986.66;5004384;28;20511;-73
2023/02/16 06:43:31;;;;;;;50.90;23.52;;;2.50;99.90;;;-148.53;100.00;63986.66;5001987;28;20049;-74
2023/02/16 06:45:56;;;;;;;47.22;22.83;;;2.50;99.90;;;-148.53;100.00;63986.66;4998475;28;20045;-73
2023/02/16 06:48:22;;;;;;;48.78;24.13;;;2.60;99.90;;;-148.53;100.00;63986.66;5000297;28;20129;-73
2023/02/16 06:50:48;;;;;;;50.50;24.85;;;2.60;99.90;;;-148.53;100.00;63986.66;5003258;28;20552;-73
2023/02/16 06:53:14;;;;;;;49.25;24.92;;;2.60;99.90;;;-148.53;100.00;63986.66;5005242;28;20041;-74
2023/02/16 06:55:39;;;;;;;50.40;24.27;;;2.60;99.90;;;-148.53;100.00;63986.66;5003903;28;20038;-73
2023/02/16 06:58:06;;;;;;;51.80;24.38;;;2.60;99.90;;;-148.53;100.00;63986.66;4998934;28;20405;-73
2023/02/16 07:00:33;;;;;;;49.63;23.67;;;2.60;99.90;;;-148.53;100.00;63986.66;5002111;28;20405;-73
2023/02/16 07:02:59;;;;;;;58.17;24.77;;;2.60;99.90;;;-148.53;100.00;63986.66;4995829;28;20038;-73
2023/02/16 07:05:25;;;;;;;49.20;24.25;;;2.60;99.90;;;-148.53;100.00;63986.66;5005341;28;20065;-73
2023/02/16 07:07:51;;;;;;;50.42;24.35;;;2.60;99.90;;;-148.53;100.00;63986.66;5002224;28;20121;-73
2023/02/16 07:10:18;;;;;;;52.97;25.45;;;2.60;99.90;;;-148.53;100.00;63986.66;5000161;28;20371;-73
2023/02/16 07:12:46;;;;;;;52.33;24.77;;;2.60;99.90;;;-148.53;100.00;63986.66;5002080;28;20041;-73
2023/02/16 07:15:12;;;;;;;54.27;25.40;;;2.70;99.90;;;-148.53;100.00;63986.66;5013885;28;20403;-73
2023/02/16 07:17:38;;;;;;;55.40;23.75;;;2.70;99.90;;;-148.53;100.00;63986.66;5002190;28;20296;-73
2023/02/16 07:20:04;;;;;;;51.38;23.98;;;2.80;99.90;;;-148.53;100.00;63986.66;4998259;28;20041;-72
2023/02/16 07:22:31;;;;;;;50.22;23.25;;;2.90;99.90;;;-148.53;100.00;63986.66;4996552;28;20559;-72
2023/02/16 07:24:59;;;;;;;48.00;23.38;;;2.90;99.90;;;-148.53;100.00;63986.66;4998587;28;20478;-72
2023/02/16 07:27:26;;;;;;;49.28;23.45;;;2.90;99.90;;;-148.53;100.00;63986.66;4996722;28;20050;-72
2023/02/16 07:29:52;;;;;;;51.38;23.60;;;3.00;99.90;;;-148.53;100.00;63986.66;5006444;28;20117;-74
2023/02/16 07:32:18;;;;;;;50.28;23.52;;;3.00;99.90;;;-148.53;100.00;63986.66;5011763;28;20036;-74
2023/02/16 07:34:44;;;;;;;50.15;23.88;;;3.00;99.90;;;-148.53;100.00;63986.66;5000939;28;20050;-73
2023/02/16 07:37:10;;;;;;;47.55;22.27;;;3.00;99.90;;;-148.53;100.00;63986.66;5005974;28;20042;-74
2023/02/16 07:39:36;;;;;;;46.72;22.90;;;3.00;99.90;;;-148.53;100.00;63986.66;5010017;28;20038;-74
2023/02/16 07:42:02;;;;;;;46.88;22.27;;;3.10;99.90;;;-148.53;100.00;63986.66;5012096;28;20058;-74
2023/02/16 07:44:28;;;;;;;45.33;22.38;;;3.10;99.90;;;-148.53;100.00;63986.66;5012134;28;20040;-74
2023/02/16 07:46:54;;;;;;;48.17;23.00;;;3.20;99.90;;;-148.53;100.00;63986.66;5004727;28;20038;-73
2023/02/16 07:49:19;;;;;;;45.85;22.98;;;3.20;99.90;;;-148.53;100.00;63986.66;5006581;28;20041;-74
2023/02/16 07:51:45;;;;;;;46.17;22.05;;;3.40;99.90;;;-148.53;100.00;63986.66;5004812;28;20397;-73
2023/02/16 07:54:11;;;;;;;45.13;22.55;;;3.50;99.90;;;-148.53;100.00;63986.66;5008038;28;20046;-73
2023/02/16 07:56:37;;;;;;;46.78;22.77;;;3.60;99.90;;;-148.53;100.00;63986.66;5007815;28;20077;-73
2023/02/16 07:59:03;;;;;;;44.60;22.42;;;3.70;99.90;;;-148.53;100.00;63986.66;5007358;28;20122;-73
2023/02/16 08:01:29;;;;;;;42.55;22.23;;;3.70;99.90;;;-148.53;100.00;63986.66;5005589;28;20478;-73
2023/02/16 08:03:56;;;;;;;46.90;22.70;;;3.80;99.90;;;-148.53;100.00;63986.66;5005660;28;20426;-73
2023/02/16 08:06:22;;;;;;;44.67;22.40;;;3.90;99.90;;;-148.53;100.00;63986.66;5008832;28;20049;-73
2023/02/16 08:08:48;;;;;;;40.08;21.48;;;4.00;99.90;;;-148.53;100.00;63986.66;5006293;28;20124;-73
2023/02/16 08:11:18;;;;;;;44.00;21.17;;;4.10;99.90;;;-148.53;100.00;63986.66;5001207;28;20383;-73
2023/02/16 08:13:45;;;;;;;43.88;21.90;;;4.20;99.90;;;-148.53;100.00;63986.66;5008121;28;20049;-73
2023/02/16 08:16:21;;;;;;;39.92;20.80;;;4.20;99.90;;;-148.53;100.00;63986.66;5006530;28;20042;-73
2023/02/16 08:18:49;;;;;;;41.78;21.35;;;4.30;99.90;;;-148.53;100.00;63986.66;5007359;28;20457;-73
2023/02/16 08:21:26;;;;;;;34.60;18.95;;;4.20;99.90;;;-148.53;100.00;63986.66;5007248;28;20062;-72
2023/02/16 08:24:00;;;;;;;42.28;21.02;;;4.20;99.90;;;-148.53;100.00;63986.66;4998644;28;20081;-73
2023/02/16 08:26:33;;;;;;;39.95;20.48;;;4.20;99.90;;;-148.53;100.00;63986.66;5007038;28;20046;-73
2023/02/16 08:29:00;;;;;;;42.50;20.50;;;4.30;99.90;;;-148.53;100.00;63986.66;5004082;28;20123;-73
2023/02/16 08:31:29;;;;;;;42.45;20.80;;;4.40;99.90;;;-148.53;100.00;63986.66;5003835;28;20485;-73
2023/02/16 08:33:58;;;;;;;41.17;20.95;;;4.50;99.90;;;-148.53;100.00;63986.66;4994824;28;20042;-73
2023/02/16 08:36:34;;;;;;;42.00;21.15;;;4.60;99.90;;;-148.53;100.00;63986.66;5007504;28;20474;-73
2023/02/16 08:39:07;;;;;;;43.00;20.63;;;4.70;99.90;;;-148.53;100.00;63986.66;5001266;28;20057;-72
2023/02/16 08:41:35;;;;;;;37.90;20.20;;;4.70;99.90;;;-148.53;100.00;63986.66;5009939;28;20509;-72
2023/02/16 08:44:04;;;;;;;40.38;20.92;;;4.80;99.90;;;-148.53;100.00;63986.66;5007819;28;20045;-73
2023/02/16 08:46:32;;;;;;;38.03;20.15;;;4.90;99.90;;;-148.53;100.00;63986.66;5016400;28;20453;-73
2023/02/16 08:48:59;;;;;;;38.03;19.48;;;5.00;99.90;;;-148.53;100.00;63986.66;5009627;28;20141;-74
2023/02/16 08:51:29;;;;;;;37.53;18.73;;;5.20;99.90;;;-148.53;100.00;63986.66;5007100;28;20079;-73
2023/02/16 08:53:59;;;;;;;37.90;19.20;;;5.40;99.90;;;-148.53;100.00;63986.66;5002536;28;20034;-74
2023/02/16 08:56:25;;;;;;;37.60;19.42;;;5.60;99.90;;;-148.53;100.00;63986.66;5007418;28;20049;-74
2023/02/16 08:58:51;;;;;;;36.00;18.45;;;5.70;99.90;;;-148.53;100.00;63986.66;5006987;28;20042;-71
2023/02/16 09:01:17;;;;;;;36.80;19.13;;;6.00;99.90;;;-148.53;100.00;63986.66;5005703;28;20042;-74
2023/02/16 09:03:45;;;;;;;36.55;20.13;;;6.20;99.90;;;-148.53;100.00;63986.66;5010728;28;20068;-73
2023/02/16 09:06:14;;;;;;;36.33;19.10;;;6.50;99.90;;;-148.53;100.00;63986.66;5004153;28;20045;-73
2023/02/16 09:08:40;;;;;;;32.67;18.10;;;;;;;-148.53;100.00;63986.66;5007669;28;20041;-73
2023/02/16 09:11:12;;;;;;;34.50;18.48;;;6.80;99.90;;;-148.53;100.00;63986.66;5003846;28;20117;-73
2023/02/16 09:13:39;;;;;;;37.42;19.23;;;7.30;99.90;;;-148.53;100.00;63986.66;5001292;28;20050;-73
2023/02/16 09:16:09;;;;;;;32.25;18.00;;;7.40;99.90;;;-148.53;100.00;63986.66;5002871;28;20148;-72
2023/02/16 09:18:35;;;;;;;33.63;17.83;;;7.50;99.90;;;-148.53;100.00;63986.66;5007710;28;20091;-74
2023/02/16 09:21:13;;;;;;;33.45;18.33;;;7.50;99.90;;;-148.53;100.00;63986.66;5010095;28;20504;-73
2023/02/16 09:23:42;;;;;;;34.25;17.73;;;7.40;99.90;;;-148.53;100.00;63986.66;5002505;28;20046;-74
2023/02/16 09:26:09;;;;;;;34.13;18.02;;;7.30;99.90;;;-148.53;100.00;63986.66;4999639;28;20497;-74
2023/02/16 09:28:38;;;;;;;33.80;18.40;;;7.20;99.90;;;-148.53;100.00;63986.66;5006227;28;20034;-73
2023/02/16 09:31:15;;;;;;;;;;;7.40;99.90;;;-148.53;100.00;63986.66;5004494;28;20037;-73
2023/02/16 09:33:42;;;;;;;36.05;18.23;;;7.50;99.90;;;-148.53;100.00;63986.66;5000321;28;20031;-74
2023/02/16 09:36:11;;;;;;;36.38;19.30;;;7.40;99.90;;;-148.53;100.00;63986.66;5004234;28;20030;-74
2023/02/16 09:38:39;;;;;;;34.38;17.60;;;7.50;99.90;;;-148.53;100.00;63986.66;5003904;28;20401;-73
2023/02/16 09:41:26;;;;;;;33.05;17.98;;;7.50;99.90;;;-148.53;100.00;63986.66;5003984;28;20120;-74
2023/02/16 09:44:44;;;;;;;35.00;18.63;;;7.60;99.90;;;-148.53;100.00;63986.66;5010543;28;20042;-74
2023/02/16 09:47:40;;;;;;;31.25;17.40;;;7.50;99.90;;;-148.53;100.00;63986.66;5008169;28;20059;-72
2023/02/16 09:50:24;;;;;;;31.80;17.70;;;7.50;99.90;;;-148.53;100.00;63986.66;4996436;28;20070;-73
2023/02/16 09:53:04;;;;;;;35.78;18.90;;;7.60;99.90;;;-148.53;100.00;63986.66;4997036;28;20212;-75
2023/02/16 09:55:58;;;;;;;31.20;17.63;;;7.70;99.90;;;-148.53;100.00;63986.66;5002594;28;20053;-73
2023/02/16 09:58:45;;;;;;;46.97;19.13;;;7.70;99.90;;;-148.53;100.00;63986.66;5005371;28;20109;-73
2023/02/16 10:01:46;;;;;;;41.03;19.02;;;7.70;99.90;;;-148.53;100.00;63986.66;5004363;28;20041;-74
2023/02/16 10:04:45;;;;;;;34.72;18.25;;;7.80;99.90;;;-148.53;100.00;63986.66;4998223;28;20041;-75
2023/02/16 10:07:39;;;;;;;32.60;18.13;;;7.70;99.90;;;-148.53;100.00;63986.66;5001555;28;20064;-73
2023/02/16 10:10:07;;;;;;;32.92;18.30;;;7.80;99.90;;;-148.53;100.00;63986.66;5014439;28;20038;-74
2023/02/16 10:12:45;;;;;;;31.70;18.42;;;7.80;99.90;;;-148.53;100.00;63986.66;4999715;28;20073;-74
2023/02/16 10:15:24;;;;;;;31.93;17.40;;;7.70;99.90;;;-148.53;100.00;63986.66;4998850;28;20057;-74
2023/02/16 10:18:20;;;;;;;32.28;18.30;;;7.60;99.90;;;-148.53;100.00;63986.66;5001568;28;20386;-74
2023/02/16 10:20:52;;;;;;;33.92;17.77;;;7.50;99.90;;;-148.53;100.00;63986.66;4994661;28;20046;-74
2023/02/16 10:23:42;;;;;;;33.08;18.23;;;7.30;99.90;;;-148.53;100.00;63986.66;5000625;28;20120;-74
2023/02/16 10:26:20;;;;;;;44.60;19.63;;;7.20;99.90;;;-148.53;100.00;63986.66;4997297;28;20502;-74
2023/02/16 10:28:54;;;;;;;30.35;19.08;;;7.20;99.90;;;-148.53;100.00;63986.66;4999300;28;20034;-74
2023/02/16 10:31:39;;;;;;;35.33;18.35;;;7.10;99.90;;;-148.53;100.00;63986.66;5008178;28;20026;-74
2023/02/16 10:34:38;;;;;;;33.75;17.42;;;7.10;99.90;;;-148.53;100.00;63986.66;5005019;28;20077;-74
2023/02/16 10:37:13;;;;;;;34.70;18.35;;;7.10;99.90;;;-148.53;100.00;63986.66;5007420;28;20037;-73
2023/02/16 10:40:31;;;;;;;35.10;19.23;;;7.10;99.90;;;-148.53;100.00;63986.66;5004017;28;20050;-74
2023/02/16 10:43:24;;;;;;;32.45;18.10;;;7.20;99.90;;;-148.53;100.00;63986.66;4998748;28;20038;-74
2023/02/16 10:45:54;;;;;;;33.65;18.45;;;7.20;99.90;;;-148.53;100.00;63986.66;4998335;28;20046;-74